sensor_id;sensor_type;location;lat;lon;timestamp;P1;durP1;ratioP1;P2;durP2;ratioP2
11058;SDS011;5582;59.272;15.220;2022-08-03T00:01:29;3.17;;;1.10;;
11058;SDS011;5582;59.272;15.220;2022-08-03T00:03:55;2.43;;;0.90;;
11058;SDS011;5582;59.272;15.220;2022-08-03T00:06:20;2.30;;;0.90;;
11058;SDS011;5582;59.272;15.220;2022-08-03T00:08:46;2.63;;;1.07;;
11058;SDS011;5582;59.272;15.220;2022-08-03T00:11:12;2.93;;;0.90;;
11058;SDS011;5582;59.272;15.220;2022-08-03T00:13:37;2.67;;;1.10;;
11058;SDS011;5582;59.272;15.220;2022-08-03T00:16:03;5.67;;;1.00;;
11058;SDS011;5582;59.272;15.220;2022-08-03T00:18:29;4.03;;;1.23;;
11058;SDS011;5582;59.272;15.220;2022-08-03T00:20:55;3.70;;;0.90;;
11058;SDS011;5582;59.272;15.220;2022-08-03T00:23:20;5.17;;;1.67;;
11058;SDS011;5582;59.272;15.220;2022-08-03T00:25:46;4.30;;;1.07;;
11058;SDS011;5582;59.272;15.220;2022-08-03T00:28:12;5.03;;;1.00;;
11058;SDS011;5582;59.272;15.220;2022-08-03T00:30:37;3.33;;;1.17;;
11058;SDS011;5582;59.272;15.220;2022-08-03T00:33:03;2.67;;;1.10;;
11058;SDS011;5582;59.272;15.220;2022-08-03T00:35:29;2.77;;;1.10;;
11058;SDS011;5582;59.272;15.220;2022-08-03T00:37:55;5.13;;;1.30;;
11058;SDS011;5582;59.272;15.220;2022-08-03T00:40:20;5.43;;;1.30;;
11058;SDS011;5582;59.272;15.220;2022-08-03T00:42:51;3.57;;;1.40;;
11058;SDS011;5582;59.272;15.220;2022-08-03T00:45:22;4.63;;;1.23;;
11058;SDS011;5582;59.272;15.220;2022-08-03T00:47:49;2.50;;;1.00;;
11058;SDS011;5582;59.272;15.220;2022-08-03T00:50:16;2.77;;;1.30;;
11058;SDS011;5582;59.272;15.220;2022-08-03T00:52:43;3.00;;;1.10;;
11058;SDS011;5582;59.272;15.220;2022-08-03T00:55:09;3.20;;;1.23;;
11058;SDS011;5582;59.272;15.220;2022-08-03T00:57:36;3.17;;;1.20;;
11058;SDS011;5582;59.272;15.220;2022-08-03T01:00:04;4.50;;;1.07;;
11058;SDS011;5582;59.272;15.220;2022-08-03T01:02:31;5.20;;;1.20;;
11058;SDS011;5582;59.272;15.220;2022-08-03T01:04:57;4.37;;;1.30;;
11058;SDS011;5582;59.272;15.220;2022-08-03T01:12:51;5.70;;;1.23;;
11058;SDS011;5582;59.272;15.220;2022-08-03T01:15:37;3.67;;;1.10;;
11058;SDS011;5582;59.272;15.220;2022-08-03T01:18:15;5.93;;;1.27;;
11058;SDS011;5582;59.272;15.220;2022-08-03T01:20:46;3.83;;;1.33;;
11058;SDS011;5582;59.272;15.220;2022-08-03T01:26:26;3.10;;;1.20;;
11058;SDS011;5582;59.272;15.220;2022-08-03T01:31:36;5.20;;;1.50;;
11058;SDS011;5582;59.272;15.220;2022-08-03T01:34:06;4.60;;;1.30;;
11058;SDS011;5582;59.272;15.220;2022-08-03T01:36:37;4.13;;;1.37;;
11058;SDS011;5582;59.272;15.220;2022-08-03T01:39:07;3.17;;;1.47;;
11058;SDS011;5582;59.272;15.220;2022-08-03T01:41:38;3.77;;;1.57;;
11058;SDS011;5582;59.272;15.220;2022-08-03T01:44:10;4.77;;;1.60;;
11058;SDS011;5582;59.272;15.220;2022-08-03T01:46:37;3.67;;;1.57;;
11058;SDS011;5582;59.272;15.220;2022-08-03T01:49:05;4.13;;;1.80;;
11058;SDS011;5582;59.272;15.220;2022-08-03T01:51:34;2.43;;;1.50;;
11058;SDS011;5582;59.272;15.220;2022-08-03T01:54:01;6.37;;;1.40;;
11058;SDS011;5582;59.272;15.220;2022-08-03T01:56:28;3.30;;;1.50;;
11058;SDS011;5582;59.272;15.220;2022-08-03T01:58:55;5.33;;;1.60;;
11058;SDS011;5582;59.272;15.220;2022-08-03T02:01:22;3.70;;;1.50;;
11058;SDS011;5582;59.272;15.220;2022-08-03T02:03:50;5.33;;;1.67;;
11058;SDS011;5582;59.272;15.220;2022-08-03T02:06:17;4.10;;;1.57;;
11058;SDS011;5582;59.272;15.220;2022-08-03T02:08:44;3.57;;;1.40;;
11058;SDS011;5582;59.272;15.220;2022-08-03T02:11:12;3.23;;;1.53;;
11058;SDS011;5582;59.272;15.220;2022-08-03T02:13:38;2.57;;;1.40;;
11058;SDS011;5582;59.272;15.220;2022-08-03T02:16:04;6.53;;;1.80;;
11058;SDS011;5582;59.272;15.220;2022-08-03T02:18:31;5.73;;;1.27;;
11058;SDS011;5582;59.272;15.220;2022-08-03T02:20:59;7.37;;;1.50;;
11058;SDS011;5582;59.272;15.220;2022-08-03T02:23:26;3.50;;;1.57;;
11058;SDS011;5582;59.272;15.220;2022-08-03T02:25:53;3.17;;;1.33;;
11058;SDS011;5582;59.272;15.220;2022-08-03T02:28:29;7.63;;;1.90;;
11058;SDS011;5582;59.272;15.220;2022-08-03T02:31:02;3.20;;;1.43;;
11058;SDS011;5582;59.272;15.220;2022-08-03T02:33:32;3.83;;;1.70;;
11058;SDS011;5582;59.272;15.220;2022-08-03T02:36:01;4.60;;;1.53;;
11058;SDS011;5582;59.272;15.220;2022-08-03T02:38:34;7.93;;;1.87;;
11058;SDS011;5582;59.272;15.220;2022-08-03T02:41:04;7.10;;;1.80;;
11058;SDS011;5582;59.272;15.220;2022-08-03T02:43:33;5.67;;;1.70;;
11058;SDS011;5582;59.272;15.220;2022-08-03T02:46:01;5.97;;;1.80;;
11058;SDS011;5582;59.272;15.220;2022-08-03T02:48:27;4.07;;;1.90;;
11058;SDS011;5582;59.272;15.220;2022-08-03T02:50:56;3.17;;;1.83;;
11058;SDS011;5582;59.272;15.220;2022-08-03T02:53:23;3.43;;;1.70;;
11058;SDS011;5582;59.272;15.220;2022-08-03T02:55:51;5.33;;;1.80;;
11058;SDS011;5582;59.272;15.220;2022-08-03T02:58:19;4.50;;;2.03;;
11058;SDS011;5582;59.272;15.220;2022-08-03T03:00:47;2.70;;;1.60;;
11058;SDS011;5582;59.272;15.220;2022-08-03T03:03:16;4.00;;;1.63;;
11058;SDS011;5582;59.272;15.220;2022-08-03T03:05:42;6.83;;;1.93;;
11058;SDS011;5582;59.272;15.220;2022-08-03T03:08:13;5.60;;;1.90;;
11058;SDS011;5582;59.272;15.220;2022-08-03T03:10:41;4.83;;;1.63;;
11058;SDS011;5582;59.272;15.220;2022-08-03T03:13:07;4.67;;;2.07;;
11058;SDS011;5582;59.272;15.220;2022-08-03T03:15:35;4.17;;;1.70;;
11058;SDS011;5582;59.272;15.220;2022-08-03T03:18:03;3.30;;;1.70;;
11058;SDS011;5582;59.272;15.220;2022-08-03T03:20:30;3.57;;;1.90;;
11058;SDS011;5582;59.272;15.220;2022-08-03T03:22:59;6.17;;;1.87;;
11058;SDS011;5582;59.272;15.220;2022-08-03T03:25:27;3.00;;;1.60;;
11058;SDS011;5582;59.272;15.220;2022-08-03T03:27:55;2.93;;;1.60;;
11058;SDS011;5582;59.272;15.220;2022-08-03T03:30:23;3.63;;;1.67;;
11058;SDS011;5582;59.272;15.220;2022-08-03T03:32:49;3.90;;;1.67;;
11058;SDS011;5582;59.272;15.220;2022-08-03T03:35:15;3.13;;;2.13;;
11058;SDS011;5582;59.272;15.220;2022-08-03T03:37:41;2.83;;;1.77;;
11058;SDS011;5582;59.272;15.220;2022-08-03T03:40:07;4.90;;;1.77;;
11058;SDS011;5582;59.272;15.220;2022-08-03T03:42:33;3.30;;;1.90;;
11058;SDS011;5582;59.272;15.220;2022-08-03T03:45:02;4.17;;;2.03;;
11058;SDS011;5582;59.272;15.220;2022-08-03T03:47:29;3.37;;;2.37;;
11058;SDS011;5582;59.272;15.220;2022-08-03T03:49:55;2.93;;;2.17;;
11058;SDS011;5582;59.272;15.220;2022-08-03T03:52:22;3.53;;;2.10;;
11058;SDS011;5582;59.272;15.220;2022-08-03T03:54:47;4.03;;;1.80;;
11058;SDS011;5582;59.272;15.220;2022-08-03T03:57:13;7.50;;;2.43;;
11058;SDS011;5582;59.272;15.220;2022-08-03T03:59:39;3.53;;;2.10;;
11058;SDS011;5582;59.272;15.220;2022-08-03T04:02:06;3.43;;;2.07;;
11058;SDS011;5582;59.272;15.220;2022-08-03T04:04:33;4.97;;;2.23;;
11058;SDS011;5582;59.272;15.220;2022-08-03T04:07:18;3.53;;;2.13;;
11058;SDS011;5582;59.272;15.220;2022-08-03T04:10:04;4.30;;;2.40;;
11058;SDS011;5582;59.272;15.220;2022-08-03T04:12:56;3.43;;;2.37;;
11058;SDS011;5582;59.272;15.220;2022-08-03T04:15:24;4.03;;;2.70;;
11058;SDS011;5582;59.272;15.220;2022-08-03T04:17:52;3.63;;;2.17;;
11058;SDS011;5582;59.272;15.220;2022-08-03T04:20:21;3.93;;;2.53;;
11058;SDS011;5582;59.272;15.220;2022-08-03T04:22:50;4.47;;;2.10;;
11058;SDS011;5582;59.272;15.220;2022-08-03T04:25:18;2.30;;;2.10;;
11058;SDS011;5582;59.272;15.220;2022-08-03T04:27:47;2.97;;;2.40;;
11058;SDS011;5582;59.272;15.220;2022-08-03T04:30:16;4.00;;;2.30;;
11058;SDS011;5582;59.272;15.220;2022-08-03T04:32:43;2.90;;;2.10;;
11058;SDS011;5582;59.272;15.220;2022-08-03T04:35:15;3.77;;;2.37;;
11058;SDS011;5582;59.272;15.220;2022-08-03T04:37:42;4.73;;;2.47;;
11058;SDS011;5582;59.272;15.220;2022-08-03T04:40:20;5.20;;;2.50;;
11058;SDS011;5582;59.272;15.220;2022-08-03T04:42:49;7.67;;;2.50;;
11058;SDS011;5582;59.272;15.220;2022-08-03T04:45:19;3.00;;;2.13;;
11058;SDS011;5582;59.272;15.220;2022-08-03T04:47:45;2.30;;;1.90;;
11058;SDS011;5582;59.272;15.220;2022-08-03T04:50:11;4.40;;;2.00;;
11058;SDS011;5582;59.272;15.220;2022-08-03T04:52:37;2.20;;;1.87;;
11058;SDS011;5582;59.272;15.220;2022-08-03T04:55:03;2.83;;;1.77;;
11058;SDS011;5582;59.272;15.220;2022-08-03T04:57:29;4.87;;;2.13;;
11058;SDS011;5582;59.272;15.220;2022-08-03T04:59:55;3.30;;;1.73;;
11058;SDS011;5582;59.272;15.220;2022-08-03T05:02:21;11.53;;;2.40;;
11058;SDS011;5582;59.272;15.220;2022-08-03T05:04:47;4.57;;;1.97;;
11058;SDS011;5582;59.272;15.220;2022-08-03T05:07:14;2.17;;;1.60;;
11058;SDS011;5582;59.272;15.220;2022-08-03T05:09:40;2.63;;;1.90;;
11058;SDS011;5582;59.272;15.220;2022-08-03T05:12:06;1.83;;;1.40;;
11058;SDS011;5582;59.272;15.220;2022-08-03T05:14:33;2.20;;;1.50;;
11058;SDS011;5582;59.272;15.220;2022-08-03T05:17:01;2.63;;;1.70;;
11058;SDS011;5582;59.272;15.220;2022-08-03T05:19:26;1.97;;;1.53;;
11058;SDS011;5582;59.272;15.220;2022-08-03T05:21:52;2.17;;;1.67;;
11058;SDS011;5582;59.272;15.220;2022-08-03T05:24:18;1.80;;;1.53;;
11058;SDS011;5582;59.272;15.220;2022-08-03T05:26:43;2.07;;;1.80;;
11058;SDS011;5582;59.272;15.220;2022-08-03T05:29:09;3.13;;;1.60;;
11058;SDS011;5582;59.272;15.220;2022-08-03T05:31:35;3.27;;;1.50;;
11058;SDS011;5582;59.272;15.220;2022-08-03T05:34:00;3.00;;;1.70;;
11058;SDS011;5582;59.272;15.220;2022-08-03T05:36:26;2.07;;;1.47;;
11058;SDS011;5582;59.272;15.220;2022-08-03T05:38:52;3.03;;;1.40;;
11058;SDS011;5582;59.272;15.220;2022-08-03T05:41:18;2.80;;;1.53;;
11058;SDS011;5582;59.272;15.220;2022-08-03T05:43:44;3.47;;;1.70;;
11058;SDS011;5582;59.272;15.220;2022-08-03T05:46:10;2.00;;;1.60;;
11058;SDS011;5582;59.272;15.220;2022-08-03T05:48:35;1.73;;;1.30;;
11058;SDS011;5582;59.272;15.220;2022-08-03T05:51:01;3.90;;;1.70;;
11058;SDS011;5582;59.272;15.220;2022-08-03T05:53:31;2.80;;;1.60;;
11058;SDS011;5582;59.272;15.220;2022-08-03T05:55:58;2.27;;;1.70;;
11058;SDS011;5582;59.272;15.220;2022-08-03T05:58:23;1.73;;;1.27;;
11058;SDS011;5582;59.272;15.220;2022-08-03T06:00:49;2.90;;;1.60;;
11058;SDS011;5582;59.272;15.220;2022-08-03T06:03:15;4.23;;;1.90;;
11058;SDS011;5582;59.272;15.220;2022-08-03T06:05:40;1.67;;;1.40;;
11058;SDS011;5582;59.272;15.220;2022-08-03T06:08:06;3.10;;;1.53;;
11058;SDS011;5582;59.272;15.220;2022-08-03T06:10:31;2.43;;;1.53;;
11058;SDS011;5582;59.272;15.220;2022-08-03T06:12:57;2.07;;;1.60;;
11058;SDS011;5582;59.272;15.220;2022-08-03T06:15:23;1.80;;;1.40;;
11058;SDS011;5582;59.272;15.220;2022-08-03T06:17:49;1.50;;;1.20;;
11058;SDS011;5582;59.272;15.220;2022-08-03T06:20:16;2.30;;;1.30;;
11058;SDS011;5582;59.272;15.220;2022-08-03T06:22:45;1.60;;;1.50;;
11058;SDS011;5582;59.272;15.220;2022-08-03T06:25:12;3.00;;;1.30;;
11058;SDS011;5582;59.272;15.220;2022-08-03T06:27:37;1.30;;;1.20;;
11058;SDS011;5582;59.272;15.220;2022-08-03T06:30:06;2.50;;;1.33;;
11058;SDS011;5582;59.272;15.220;2022-08-03T06:32:34;3.13;;;1.53;;
11058;SDS011;5582;59.272;15.220;2022-08-03T06:35:06;5.23;;;1.53;;
11058;SDS011;5582;59.272;15.220;2022-08-03T06:37:46;2.40;;;1.40;;
11058;SDS011;5582;59.272;15.220;2022-08-03T06:40:14;2.70;;;1.63;;
11058;SDS011;5582;59.272;15.220;2022-08-03T06:42:41;3.97;;;1.73;;
11058;SDS011;5582;59.272;15.220;2022-08-03T06:45:08;3.90;;;1.63;;
11058;SDS011;5582;59.272;15.220;2022-08-03T06:47:35;1.73;;;1.37;;
11058;SDS011;5582;59.272;15.220;2022-08-03T06:50:02;3.10;;;1.57;;
11058;SDS011;5582;59.272;15.220;2022-08-03T06:52:28;4.57;;;1.77;;
11058;SDS011;5582;59.272;15.220;2022-08-03T06:54:54;2.20;;;1.73;;
11058;SDS011;5582;59.272;15.220;2022-08-03T06:57:20;2.93;;;1.53;;
11058;SDS011;5582;59.272;15.220;2022-08-03T06:59:46;5.23;;;1.93;;
11058;SDS011;5582;59.272;15.220;2022-08-03T07:02:11;4.20;;;1.97;;
11058;SDS011;5582;59.272;15.220;2022-08-03T07:04:37;1.50;;;1.40;;
11058;SDS011;5582;59.272;15.220;2022-08-03T07:07:03;2.83;;;1.80;;
11058;SDS011;5582;59.272;15.220;2022-08-03T07:09:28;2.10;;;1.57;;
11058;SDS011;5582;59.272;15.220;2022-08-03T07:11:54;2.70;;;1.30;;
11058;SDS011;5582;59.272;15.220;2022-08-03T07:14:21;1.50;;;1.27;;
11058;SDS011;5582;59.272;15.220;2022-08-03T07:16:46;2.37;;;1.40;;
11058;SDS011;5582;59.272;15.220;2022-08-03T07:19:12;3.17;;;1.50;;
11058;SDS011;5582;59.272;15.220;2022-08-03T07:21:38;1.83;;;1.43;;
11058;SDS011;5582;59.272;15.220;2022-08-03T07:24:04;3.93;;;1.53;;
11058;SDS011;5582;59.272;15.220;2022-08-03T07:26:30;2.23;;;1.30;;
11058;SDS011;5582;59.272;15.220;2022-08-03T07:28:55;1.63;;;1.10;;
11058;SDS011;5582;59.272;15.220;2022-08-03T07:31:21;2.23;;;1.23;;
11058;SDS011;5582;59.272;15.220;2022-08-03T07:33:46;1.97;;;1.10;;
11058;SDS011;5582;59.272;15.220;2022-08-03T07:36:12;1.57;;;1.20;;
11058;SDS011;5582;59.272;15.220;2022-08-03T07:38:38;1.83;;;1.30;;
11058;SDS011;5582;59.272;15.220;2022-08-03T07:41:03;1.93;;;1.40;;
11058;SDS011;5582;59.272;15.220;2022-08-03T07:43:29;2.80;;;1.20;;
11058;SDS011;5582;59.272;15.220;2022-08-03T07:45:54;1.50;;;1.20;;
11058;SDS011;5582;59.272;15.220;2022-08-03T07:48:20;2.00;;;1.20;;
11058;SDS011;5582;59.272;15.220;2022-08-03T07:50:45;1.67;;;1.10;;
11058;SDS011;5582;59.272;15.220;2022-08-03T07:53:11;2.57;;;1.30;;
11058;SDS011;5582;59.272;15.220;2022-08-03T07:55:37;2.57;;;1.10;;
11058;SDS011;5582;59.272;15.220;2022-08-03T08:00:46;1.37;;;1.17;;
11058;SDS011;5582;59.272;15.220;2022-08-03T08:03:12;1.47;;;1.23;;
11058;SDS011;5582;59.272;15.220;2022-08-03T08:05:38;1.63;;;1.30;;
11058;SDS011;5582;59.272;15.220;2022-08-03T08:08:04;3.33;;;1.07;;
11058;SDS011;5582;59.272;15.220;2022-08-03T08:10:30;1.50;;;1.00;;
11058;SDS011;5582;59.272;15.220;2022-08-03T08:12:56;1.97;;;1.30;;
11058;SDS011;5582;59.272;15.220;2022-08-03T08:15:23;1.70;;;0.90;;
11058;SDS011;5582;59.272;15.220;2022-08-03T08:17:50;1.43;;;0.80;;
11058;SDS011;5582;59.272;15.220;2022-08-03T08:20:18;1.40;;;1.10;;
11058;SDS011;5582;59.272;15.220;2022-08-03T08:22:46;1.87;;;1.27;;
11058;SDS011;5582;59.272;15.220;2022-08-03T08:25:11;2.23;;;1.10;;
11058;SDS011;5582;59.272;15.220;2022-08-03T08:27:44;1.30;;;1.20;;
11058;SDS011;5582;59.272;15.220;2022-08-03T08:30:11;1.10;;;0.90;;
11058;SDS011;5582;59.272;15.220;2022-08-03T08:32:38;1.90;;;0.90;;
11058;SDS011;5582;59.272;15.220;2022-08-03T08:35:04;3.37;;;0.90;;
11058;SDS011;5582;59.272;15.220;2022-08-03T08:37:31;0.77;;;0.70;;
11058;SDS011;5582;59.272;15.220;2022-08-03T08:39:57;1.73;;;0.80;;
11058;SDS011;5582;59.272;15.220;2022-08-03T08:42:23;1.27;;;0.80;;
11058;SDS011;5582;59.272;15.220;2022-08-03T08:44:49;2.17;;;0.93;;
11058;SDS011;5582;59.272;15.220;2022-08-03T08:47:17;1.70;;;1.10;;
11058;SDS011;5582;59.272;15.220;2022-08-03T08:49:43;2.50;;;0.80;;
11058;SDS011;5582;59.272;15.220;2022-08-03T08:52:12;1.23;;;1.03;;
11058;SDS011;5582;59.272;15.220;2022-08-03T08:54:39;3.77;;;0.90;;
11058;SDS011;5582;59.272;15.220;2022-08-03T08:57:06;1.50;;;0.90;;
11058;SDS011;5582;59.272;15.220;2022-08-03T08:59:33;2.73;;;1.00;;
11058;SDS011;5582;59.272;15.220;2022-08-03T09:01:59;0.90;;;0.90;;
11058;SDS011;5582;59.272;15.220;2022-08-03T09:04:25;2.60;;;1.03;;
11058;SDS011;5582;59.272;15.220;2022-08-03T09:06:52;0.90;;;0.90;;
11058;SDS011;5582;59.272;15.220;2022-08-03T09:09:17;2.07;;;1.13;;
11058;SDS011;5582;59.272;15.220;2022-08-03T09:11:43;0.80;;;0.80;;
11058;SDS011;5582;59.272;15.220;2022-08-03T09:14:09;1.43;;;1.33;;
11058;SDS011;5582;59.272;15.220;2022-08-03T09:16:35;1.40;;;1.30;;
11058;SDS011;5582;59.272;15.220;2022-08-03T09:19:11;1.10;;;1.10;;
11058;SDS011;5582;59.272;15.220;2022-08-03T09:21:38;1.13;;;1.03;;
11058;SDS011;5582;59.272;15.220;2022-08-03T09:24:04;1.37;;;1.07;;
11058;SDS011;5582;59.272;15.220;2022-08-03T09:26:31;0.90;;;0.90;;
11058;SDS011;5582;59.272;15.220;2022-08-03T09:29:03;1.10;;;1.00;;
11058;SDS011;5582;59.272;15.220;2022-08-03T09:31:38;0.60;;;0.60;;
11058;SDS011;5582;59.272;15.220;2022-08-03T09:34:08;0.83;;;0.70;;
11058;SDS011;5582;59.272;15.220;2022-08-03T09:36:35;2.60;;;0.87;;
11058;SDS011;5582;59.272;15.220;2022-08-03T09:39:08;1.17;;;1.00;;
11058;SDS011;5582;59.272;15.220;2022-08-03T09:41:36;1.27;;;1.17;;
11058;SDS011;5582;59.272;15.220;2022-08-03T09:44:06;1.57;;;1.27;;
11058;SDS011;5582;59.272;15.220;2022-08-03T09:49:13;1.13;;;1.07;;
11058;SDS011;5582;59.272;15.220;2022-08-03T09:51:39;4.23;;;1.47;;
11058;SDS011;5582;59.272;15.220;2022-08-03T09:54:05;1.57;;;1.40;;
11058;SDS011;5582;59.272;15.220;2022-08-03T09:56:44;2.43;;;1.50;;
11058;SDS011;5582;59.272;15.220;2022-08-03T09:59:11;1.40;;;1.20;;
11058;SDS011;5582;59.272;15.220;2022-08-03T10:01:46;1.87;;;1.47;;
11058;SDS011;5582;59.272;15.220;2022-08-03T10:04:12;1.73;;;1.57;;
11058;SDS011;5582;59.272;15.220;2022-08-03T10:06:42;2.60;;;1.37;;
11058;SDS011;5582;59.272;15.220;2022-08-03T10:09:24;2.10;;;1.53;;
11058;SDS011;5582;59.272;15.220;2022-08-03T10:11:50;4.87;;;1.70;;
11058;SDS011;5582;59.272;15.220;2022-08-03T10:14:16;3.03;;;1.53;;
11058;SDS011;5582;59.272;15.220;2022-08-03T10:16:47;2.53;;;1.57;;
11058;SDS011;5582;59.272;15.220;2022-08-03T10:19:13;2.70;;;2.10;;
11058;SDS011;5582;59.272;15.220;2022-08-03T10:21:40;3.27;;;2.07;;
11058;SDS011;5582;59.272;15.220;2022-08-03T10:24:13;2.67;;;1.60;;
11058;SDS011;5582;59.272;15.220;2022-08-03T10:26:44;2.90;;;2.10;;
11058;SDS011;5582;59.272;15.220;2022-08-03T10:29:20;2.63;;;2.20;;
11058;SDS011;5582;59.272;15.220;2022-08-03T10:31:49;6.13;;;2.00;;
11058;SDS011;5582;59.272;15.220;2022-08-03T10:34:21;3.03;;;1.80;;
11058;SDS011;5582;59.272;15.220;2022-08-03T10:36:48;2.60;;;1.87;;
11058;SDS011;5582;59.272;15.220;2022-08-03T10:39:17;2.83;;;1.60;;
11058;SDS011;5582;59.272;15.220;2022-08-03T10:41:45;3.20;;;2.03;;
11058;SDS011;5582;59.272;15.220;2022-08-03T10:44:13;3.27;;;1.97;;
11058;SDS011;5582;59.272;15.220;2022-08-03T10:46:40;2.27;;;1.87;;
11058;SDS011;5582;59.272;15.220;2022-08-03T10:49:11;2.63;;;1.97;;
11058;SDS011;5582;59.272;15.220;2022-08-03T10:51:41;4.40;;;2.10;;
11058;SDS011;5582;59.272;15.220;2022-08-03T10:54:35;2.60;;;1.77;;
11058;SDS011;5582;59.272;15.220;2022-08-03T10:57:40;2.37;;;1.73;;
11058;SDS011;5582;59.272;15.220;2022-08-03T11:00:07;5.83;;;2.00;;
11058;SDS011;5582;59.272;15.220;2022-08-03T11:05:41;3.93;;;2.07;;
11058;SDS011;5582;59.272;15.220;2022-08-03T11:10:48;5.83;;;2.17;;
11058;SDS011;5582;59.272;15.220;2022-08-03T11:13:15;5.00;;;2.00;;
11058;SDS011;5582;59.272;15.220;2022-08-03T11:15:44;4.00;;;1.90;;
11058;SDS011;5582;59.272;15.220;2022-08-03T11:18:11;8.47;;;2.20;;
11058;SDS011;5582;59.272;15.220;2022-08-03T11:20:59;3.43;;;2.00;;
11058;SDS011;5582;59.272;15.220;2022-08-03T11:23:40;5.10;;;2.10;;
11058;SDS011;5582;59.272;15.220;2022-08-03T11:28:42;4.30;;;1.87;;
11058;SDS011;5582;59.272;15.220;2022-08-03T11:34:04;5.43;;;2.00;;
11058;SDS011;5582;59.272;15.220;2022-08-03T11:44:55;3.27;;;2.13;;
11058;SDS011;5582;59.272;15.220;2022-08-03T11:47:22;3.13;;;1.83;;
11058;SDS011;5582;59.272;15.220;2022-08-03T11:49:51;4.30;;;2.03;;
11058;SDS011;5582;59.272;15.220;2022-08-03T11:52:19;3.03;;;1.87;;
11058;SDS011;5582;59.272;15.220;2022-08-03T11:54:46;6.83;;;2.10;;
11058;SDS011;5582;59.272;15.220;2022-08-03T11:57:31;5.20;;;2.13;;
11058;SDS011;5582;59.272;15.220;2022-08-03T11:59:58;3.93;;;2.10;;
11058;SDS011;5582;59.272;15.220;2022-08-03T12:02:24;4.43;;;2.00;;
11058;SDS011;5582;59.272;15.220;2022-08-03T12:04:53;5.60;;;2.00;;
11058;SDS011;5582;59.272;15.220;2022-08-03T12:07:26;7.17;;;2.67;;
11058;SDS011;5582;59.272;15.220;2022-08-03T12:10:05;5.73;;;1.87;;
11058;SDS011;5582;59.272;15.220;2022-08-03T12:12:32;4.30;;;2.00;;
11058;SDS011;5582;59.272;15.220;2022-08-03T12:14:58;7.63;;;1.90;;
11058;SDS011;5582;59.272;15.220;2022-08-03T12:17:43;7.87;;;2.27;;
11058;SDS011;5582;59.272;15.220;2022-08-03T12:20:08;4.73;;;1.93;;
11058;SDS011;5582;59.272;15.220;2022-08-03T12:22:44;5.97;;;2.10;;
11058;SDS011;5582;59.272;15.220;2022-08-03T12:25:10;6.07;;;2.47;;
11058;SDS011;5582;59.272;15.220;2022-08-03T12:27:45;6.43;;;2.37;;
11058;SDS011;5582;59.272;15.220;2022-08-03T12:30:11;7.53;;;2.27;;
11058;SDS011;5582;59.272;15.220;2022-08-03T12:32:37;12.60;;;2.60;;
11058;SDS011;5582;59.272;15.220;2022-08-03T12:35:03;4.57;;;2.37;;
11058;SDS011;5582;59.272;15.220;2022-08-03T12:37:30;3.93;;;2.13;;
11058;SDS011;5582;59.272;15.220;2022-08-03T12:39:56;8.13;;;2.37;;
11058;SDS011;5582;59.272;15.220;2022-08-03T12:42:35;8.27;;;2.23;;
11058;SDS011;5582;59.272;15.220;2022-08-03T12:45:21;7.87;;;2.27;;
11058;SDS011;5582;59.272;15.220;2022-08-03T12:50:26;7.33;;;2.70;;
11058;SDS011;5582;59.272;15.220;2022-08-03T12:52:59;7.57;;;2.80;;
11058;SDS011;5582;59.272;15.220;2022-08-03T12:55:27;6.33;;;1.90;;
11058;SDS011;5582;59.272;15.220;2022-08-03T12:58:01;3.03;;;2.13;;
11058;SDS011;5582;59.272;15.220;2022-08-03T13:00:27;2.00;;;1.80;;
11058;SDS011;5582;59.272;15.220;2022-08-03T13:03:06;5.17;;;2.50;;
11058;SDS011;5582;59.272;15.220;2022-08-03T13:05:44;6.37;;;2.37;;
11058;SDS011;5582;59.272;15.220;2022-08-03T13:08:44;3.30;;;2.20;;
11058;SDS011;5582;59.272;15.220;2022-08-03T13:13:51;3.80;;;2.00;;
11058;SDS011;5582;59.272;15.220;2022-08-03T13:16:20;3.93;;;2.17;;
11058;SDS011;5582;59.272;15.220;2022-08-03T13:18:47;4.03;;;2.20;;
11058;SDS011;5582;59.272;15.220;2022-08-03T13:21:14;4.20;;;2.30;;
11058;SDS011;5582;59.272;15.220;2022-08-03T13:23:40;8.30;;;2.40;;
11058;SDS011;5582;59.272;15.220;2022-08-03T13:26:07;7.97;;;2.40;;
11058;SDS011;5582;59.272;15.220;2022-08-03T13:28:33;3.50;;;2.00;;
11058;SDS011;5582;59.272;15.220;2022-08-03T13:30:59;3.30;;;2.40;;
11058;SDS011;5582;59.272;15.220;2022-08-03T13:33:25;7.27;;;2.47;;
11058;SDS011;5582;59.272;15.220;2022-08-03T13:35:52;6.57;;;2.37;;
11058;SDS011;5582;59.272;15.220;2022-08-03T13:38:18;7.57;;;2.70;;
11058;SDS011;5582;59.272;15.220;2022-08-03T13:40:44;4.93;;;2.30;;
11058;SDS011;5582;59.272;15.220;2022-08-03T13:43:09;5.87;;;2.50;;
11058;SDS011;5582;59.272;15.220;2022-08-03T13:45:36;6.17;;;2.40;;
11058;SDS011;5582;59.272;15.220;2022-08-03T13:48:02;5.93;;;2.37;;
11058;SDS011;5582;59.272;15.220;2022-08-03T13:50:28;3.77;;;2.17;;
11058;SDS011;5582;59.272;15.220;2022-08-03T13:52:55;6.20;;;2.57;;
11058;SDS011;5582;59.272;15.220;2022-08-03T13:55:22;6.17;;;2.40;;
11058;SDS011;5582;59.272;15.220;2022-08-03T13:57:48;6.10;;;2.70;;
11058;SDS011;5582;59.272;15.220;2022-08-03T14:00:14;4.93;;;2.23;;
11058;SDS011;5582;59.272;15.220;2022-08-03T14:02:41;3.93;;;2.07;;
11058;SDS011;5582;59.272;15.220;2022-08-03T14:05:07;4.67;;;2.30;;
11058;SDS011;5582;59.272;15.220;2022-08-03T14:07:33;6.67;;;2.40;;
11058;SDS011;5582;59.272;15.220;2022-08-03T14:09:58;3.40;;;2.23;;
11058;SDS011;5582;59.272;15.220;2022-08-03T14:12:25;5.40;;;2.40;;
11058;SDS011;5582;59.272;15.220;2022-08-03T14:14:51;7.50;;;2.40;;
11058;SDS011;5582;59.272;15.220;2022-08-03T14:17:17;5.93;;;2.00;;
11058;SDS011;5582;59.272;15.220;2022-08-03T14:19:43;8.87;;;2.23;;
11058;SDS011;5582;59.272;15.220;2022-08-03T14:22:08;3.47;;;1.97;;
11058;SDS011;5582;59.272;15.220;2022-08-03T14:24:34;7.20;;;2.10;;
11058;SDS011;5582;59.272;15.220;2022-08-03T14:26:59;10.33;;;2.77;;
11058;SDS011;5582;59.272;15.220;2022-08-03T14:29:25;9.70;;;2.60;;
11058;SDS011;5582;59.272;15.220;2022-08-03T14:31:51;7.90;;;2.63;;
11058;SDS011;5582;59.272;15.220;2022-08-03T14:34:16;5.37;;;2.50;;
11058;SDS011;5582;59.272;15.220;2022-08-03T14:36:42;8.33;;;3.00;;
11058;SDS011;5582;59.272;15.220;2022-08-03T14:39:07;5.67;;;3.13;;
11058;SDS011;5582;59.272;15.220;2022-08-03T14:41:33;4.50;;;2.93;;
11058;SDS011;5582;59.272;15.220;2022-08-03T14:43:59;11.67;;;3.20;;
11058;SDS011;5582;59.272;15.220;2022-08-03T14:46:24;10.57;;;3.40;;
11058;SDS011;5582;59.272;15.220;2022-08-03T14:48:50;5.40;;;2.90;;
11058;SDS011;5582;59.272;15.220;2022-08-03T14:51:16;7.33;;;3.83;;
11058;SDS011;5582;59.272;15.220;2022-08-03T14:53:41;7.27;;;3.87;;
11058;SDS011;5582;59.272;15.220;2022-08-03T14:56:07;7.00;;;3.20;;
11058;SDS011;5582;59.272;15.220;2022-08-03T14:58:33;9.77;;;3.80;;
11058;SDS011;5582;59.272;15.220;2022-08-03T15:00:58;5.73;;;3.17;;
11058;SDS011;5582;59.272;15.220;2022-08-03T15:03:24;7.50;;;2.80;;
11058;SDS011;5582;59.272;15.220;2022-08-03T15:05:50;4.27;;;2.87;;
11058;SDS011;5582;59.272;15.220;2022-08-03T15:08:18;6.40;;;3.33;;
11058;SDS011;5582;59.272;15.220;2022-08-03T15:10:45;7.30;;;3.27;;
11058;SDS011;5582;59.272;15.220;2022-08-03T15:13:13;5.97;;;3.10;;
11058;SDS011;5582;59.272;15.220;2022-08-03T15:15:39;5.80;;;2.70;;
11058;SDS011;5582;59.272;15.220;2022-08-03T15:18:05;5.90;;;3.00;;
11058;SDS011;5582;59.272;15.220;2022-08-03T15:20:31;7.13;;;3.67;;
11058;SDS011;5582;59.272;15.220;2022-08-03T15:22:57;5.03;;;2.77;;
11058;SDS011;5582;59.272;15.220;2022-08-03T15:25:24;6.03;;;4.43;;
11058;SDS011;5582;59.272;15.220;2022-08-03T15:27:50;6.20;;;3.40;;
11058;SDS011;5582;59.272;15.220;2022-08-03T15:30:16;17.03;;;15.33;;
11058;SDS011;5582;59.272;15.220;2022-08-03T15:32:42;9.20;;;8.00;;
11058;SDS011;5582;59.272;15.220;2022-08-03T15:35:07;2.67;;;2.33;;